sensor_id;sensor_type;location;lat;lon;timestamp;pressure;altitude;pressure_sealevel;temperature;humidity
58598;BME280;60319;46.908;16.848;2022-08-25T00:00:19;99640.91;;;19.56;100.00
58598;BME280;60319;46.908;16.848;2022-08-25T00:05:20;99643.16;;;19.52;100.00
58598;BME280;60319;46.908;16.848;2022-08-25T00:10:21;99645.25;;;19.50;100.00
58598;BME280;60319;46.908;16.848;2022-08-25T00:15:21;99646.69;;;19.46;100.00
58598;BME280;60319;46.908;16.848;2022-08-25T00:20:23;99647.06;;;19.43;100.00
58598;BME280;60319;46.908;16.848;2022-08-25T00:25:24;99646.00;;;19.37;100.00
58598;BME280;60319;46.908;16.848;2022-08-25T00:30:26;99637.47;;;19.33;100.00
58598;BME280;60319;46.908;16.848;2022-08-25T00:35:26;99643.91;;;19.32;100.00
58598;BME280;60319;46.908;16.848;2022-08-25T00:40:27;99637.66;;;19.32;100.00
58598;BME280;60319;46.908;16.848;2022-08-25T00:45:28;99636.59;;;19.26;100.00
58598;BME280;60319;46.908;16.848;2022-08-25T00:50:31;99633.28;;;19.24;100.00
58598;BME280;60319;46.908;16.848;2022-08-25T00:55:36;99632.63;;;19.22;100.00
58598;BME280;60319;46.908;16.848;2022-08-25T01:00:45;99632.81;;;19.20;100.00
58598;BME280;60319;46.908;16.848;2022-08-25T01:05:46;99614.19;;;19.19;100.00
58598;BME280;60319;46.908;16.848;2022-08-25T01:10:48;99626.44;;;19.21;100.00
58598;BME280;60319;46.908;16.848;2022-08-25T01:15:53;99624.13;;;19.18;100.00
58598;BME280;60319;46.908;16.848;2022-08-25T01:20:58;99620.75;;;19.09;100.00
58598;BME280;60319;46.908;16.848;2022-08-25T01:26:15;99628.56;;;19.04;100.00
58598;BME280;60319;46.908;16.848;2022-08-25T01:31:16;99624.59;;;19.00;100.00
58598;BME280;60319;46.908;16.848;2022-08-25T01:36:18;99615.03;;;18.97;100.00
58598;BME280;60319;46.908;16.848;2022-08-25T01:41:44;99611.53;;;18.97;100.00
58598;BME280;60319;46.908;16.848;2022-08-25T01:46:45;99608.03;;;19.03;100.00
58598;BME280;60319;46.908;16.848;2022-08-25T01:51:51;99610.16;;;19.08;100.00
58598;BME280;60319;46.908;16.848;2022-08-25T01:56:52;99603.16;;;19.14;100.00
58598;BME280;60319;46.908;16.848;2022-08-25T02:01:53;99604.41;;;19.18;100.00
58598;BME280;60319;46.908;16.848;2022-08-25T02:06:54;99610.69;;;19.25;100.00
58598;BME280;60319;46.908;16.848;2022-08-25T02:11:54;99609.03;;;19.24;100.00
58598;BME280;60319;46.908;16.848;2022-08-25T02:16:56;99595.94;;;19.21;100.00
58598;BME280;60319;46.908;16.848;2022-08-25T02:21:58;99605.84;;;19.14;100.00
58598;BME280;60319;46.908;16.848;2022-08-25T02:26:59;99604.78;;;19.08;100.00
58598;BME280;60319;46.908;16.848;2022-08-25T02:31:59;99614.44;;;19.02;100.00
58598;BME280;60319;46.908;16.848;2022-08-25T02:37:00;99609.06;;;19.02;100.00
58598;BME280;60319;46.908;16.848;2022-08-25T02:42:01;99617.34;;;19.00;100.00
58598;BME280;60319;46.908;16.848;2022-08-25T02:47:02;99608.84;;;18.97;100.00
58598;BME280;60319;46.908;16.848;2022-08-25T02:52:03;99609.44;;;18.99;100.00
58598;BME280;60319;46.908;16.848;2022-08-25T02:57:04;99595.88;;;19.07;100.00
58598;BME280;60319;46.908;16.848;2022-08-25T03:02:05;99600.25;;;19.15;100.00
58598;BME280;60319;46.908;16.848;2022-08-25T03:07:05;99592.84;;;19.24;100.00
58598;BME280;60319;46.908;16.848;2022-08-25T03:12:06;99598.66;;;19.28;100.00
58598;BME280;60319;46.908;16.848;2022-08-25T03:17:08;99594.91;;;19.22;100.00
58598;BME280;60319;46.908;16.848;2022-08-25T03:22:08;99587.84;;;19.21;100.00
58598;BME280;60319;46.908;16.848;2022-08-25T03:27:09;99588.25;;;19.18;100.00
58598;BME280;60319;46.908;16.848;2022-08-25T03:32:09;99597.97;;;19.12;100.00
58598;BME280;60319;46.908;16.848;2022-08-25T03:37:10;99588.41;;;19.09;100.00
58598;BME280;60319;46.908;16.848;2022-08-25T03:42:10;99594.50;;;18.96;100.00
58598;BME280;60319;46.908;16.848;2022-08-25T03:47:11;99590.13;;;18.89;100.00
58598;BME280;60319;46.908;16.848;2022-08-25T03:52:12;99596.94;;;18.84;100.00
58598;BME280;60319;46.908;16.848;2022-08-25T03:57:12;99594.25;;;18.84;100.00
58598;BME280;60319;46.908;16.848;2022-08-25T04:02:13;99594.19;;;18.78;100.00
58598;BME280;60319;46.908;16.848;2022-08-25T04:07:13;99601.06;;;18.80;100.00
58598;BME280;60319;46.908;16.848;2022-08-25T04:12:14;99604.19;;;18.84;100.00
58598;BME280;60319;46.908;16.848;2022-08-25T04:17:14;99607.09;;;18.89;100.00
58598;BME280;60319;46.908;16.848;2022-08-25T04:22:16;99598.03;;;18.90;100.00
58598;BME280;60319;46.908;16.848;2022-08-25T04:27:16;99608.44;;;19.00;100.00
58598;BME280;60319;46.908;16.848;2022-08-25T04:32:17;99615.34;;;19.09;100.00
58598;BME280;60319;46.908;16.848;2022-08-25T04:37:17;99607.75;;;19.20;100.00
58598;BME280;60319;46.908;16.848;2022-08-25T04:42:18;99609.94;;;19.45;100.00
58598;BME280;60319;46.908;16.848;2022-08-25T04:47:18;99619.22;;;19.84;100.00
58598;BME280;60319;46.908;16.848;2022-08-25T04:52:19;99620.41;;;20.24;100.00
58598;BME280;60319;46.908;16.848;2022-08-25T04:57:20;99620.22;;;20.52;100.00
58598;BME280;60319;46.908;16.848;2022-08-25T05:02:21;99621.84;;;21.08;100.00
58598;BME280;60319;46.908;16.848;2022-08-25T05:07:22;99614.91;;;22.24;100.00
58598;BME280;60319;46.908;16.848;2022-08-25T05:12:22;99610.34;;;23.76;100.00
58598;BME280;60319;46.908;16.848;2022-08-25T05:17:22;99603.34;;;24.17;100.00
58598;BME280;60319;46.908;16.848;2022-08-25T05:22:23;99604.81;;;24.68;100.00
58598;BME280;60319;46.908;16.848;2022-08-25T05:27:23;99592.84;;;26.62;100.00
58598;BME280;60319;46.908;16.848;2022-08-25T05:32:24;99597.03;;;27.49;91.25
58598;BME280;60319;46.908;16.848;2022-08-25T05:37:24;99593.16;;;27.95;85.46
58598;BME280;60319;46.908;16.848;2022-08-25T05:42:26;99596.94;;;27.89;84.63
58598;BME280;60319;46.908;16.848;2022-08-25T05:47:27;99610.16;;;27.08;87.95
58598;BME280;60319;46.908;16.848;2022-08-25T05:52:28;99615.06;;;28.61;79.76
58598;BME280;60319;46.908;16.848;2022-08-25T05:57:28;99622.38;;;26.19;93.17
58598;BME280;60319;46.908;16.848;2022-08-25T06:02:29;99614.09;;;24.24;100.00
58598;BME280;60319;46.908;16.848;2022-08-25T06:07:45;99614.53;;;23.59;100.00
58598;BME280;60319;46.908;16.848;2022-08-25T06:12:46;99626.81;;;23.25;100.00
58598;BME280;60319;46.908;16.848;2022-08-25T06:17:48;99630.44;;;22.42;100.00
58598;BME280;60319;46.908;16.848;2022-08-25T06:22:49;99636.06;;;22.08;100.00
58598;BME280;60319;46.908;16.848;2022-08-25T06:27:50;99633.75;;;21.66;100.00
58598;BME280;60319;46.908;16.848;2022-08-25T06:32:52;99636.28;;;21.54;100.00
58598;BME280;60319;46.908;16.848;2022-08-25T06:37:52;99644.38;;;21.54;100.00
58598;BME280;60319;46.908;16.848;2022-08-25T06:42:53;99631.84;;;21.73;100.00
58598;BME280;60319;46.908;16.848;2022-08-25T06:47:56;99637.25;;;21.80;100.00
58598;BME280;60319;46.908;16.848;2022-08-25T06:52:56;99640.38;;;21.70;100.00
58598;BME280;60319;46.908;16.848;2022-08-25T06:57:57;99645.63;;;22.11;100.00
58598;BME280;60319;46.908;16.848;2022-08-25T07:02:58;99632.66;;;23.21;100.00
58598;BME280;60319;46.908;16.848;2022-08-25T07:08:00;99628.19;;;25.94;100.00
58598;BME280;60319;46.908;16.848;2022-08-25T07:13:00;99628.31;;;28.14;87.11
58598;BME280;60319;46.908;16.848;2022-08-25T07:18:01;99639.47;;;27.40;87.31
58598;BME280;60319;46.908;16.848;2022-08-25T07:23:01;99638.56;;;28.01;81.10
58598;BME280;60319;46.908;16.848;2022-08-25T07:28:03;99636.59;;;27.97;82.31
58598;BME280;60319;46.908;16.848;2022-08-25T07:33:03;99637.09;;;29.89;71.73
58598;BME280;60319;46.908;16.848;2022-08-25T07:38:06;99642.63;;;30.61;65.65
58598;BME280;60319;46.908;16.848;2022-08-25T07:43:07;99633.94;;;28.02;78.45
58598;BME280;60319;46.908;16.848;2022-08-25T07:48:10;99643.31;;;27.39;81.97
58598;BME280;60319;46.908;16.848;2022-08-25T07:53:13;99643.56;;;26.46;87.46
58598;BME280;60319;46.908;16.848;2022-08-25T07:58:15;99636.78;;;26.02;89.92
58598;BME280;60319;46.908;16.848;2022-08-25T08:03:17;99634.47;;;25.41;93.57
58598;BME280;60319;46.908;16.848;2022-08-25T08:08:18;99634.72;;;25.27;96.00
58598;BME280;60319;46.908;16.848;2022-08-25T08:13:18;99634.34;;;25.60;94.47
58598;BME280;60319;46.908;16.848;2022-08-25T08:18:19;99631.88;;;25.87;94.60
58598;BME280;60319;46.908;16.848;2022-08-25T08:23:19;99633.66;;;25.82;92.75
58598;BME280;60319;46.908;16.848;2022-08-25T08:28:26;99626.06;;;26.13;93.34
58598;BME280;60319;46.908;16.848;2022-08-25T08:33:27;99629.84;;;26.41;91.00
58598;BME280;60319;46.908;16.848;2022-08-25T08:38:28;99628.78;;;26.42;88.28
58598;BME280;60319;46.908;16.848;2022-08-25T08:43:29;99620.50;;;26.54;88.42
58598;BME280;60319;46.908;16.848;2022-08-25T08:48:42;99622.41;;;26.88;86.12
58598;BME280;60319;46.908;16.848;2022-08-25T08:54:07;99625.22;;;26.59;86.09
58598;BME280;60319;46.908;16.848;2022-08-25T08:59:16;99620.28;;;26.09;90.45
58598;BME280;60319;46.908;16.848;2022-08-25T09:09:34;99618.69;;;25.96;93.34
58598;BME280;60319;46.908;16.848;2022-08-25T09:30:58;99604.06;;;27.23;80.77
58598;BME280;60319;46.908;16.848;2022-08-25T09:35:59;99593.25;;;27.55;81.00
58598;BME280;60319;46.908;16.848;2022-08-25T09:41:00;99583.94;;;27.74;80.42
58598;BME280;60319;46.908;16.848;2022-08-25T09:51:24;99576.31;;;26.69;83.86
58598;BME280;60319;46.908;16.848;2022-08-25T09:56:30;99568.22;;;26.40;85.72
58598;BME280;60319;46.908;16.848;2022-08-25T10:01:31;99557.81;;;26.37;84.52
58598;BME280;60319;46.908;16.848;2022-08-25T10:06:35;99549.81;;;26.47;88.56
58598;BME280;60319;46.908;16.848;2022-08-25T10:11:43;99547.81;;;26.25;90.03
58598;BME280;60319;46.908;16.848;2022-08-25T10:16:47;99552.34;;;26.54;84.56
58598;BME280;60319;46.908;16.848;2022-08-25T10:22:09;99542.34;;;26.60;82.93
58598;BME280;60319;46.908;16.848;2022-08-25T10:33:01;99544.75;;;26.73;80.77
58598;BME280;60319;46.908;16.848;2022-08-25T10:38:28;99534.75;;;27.24;76.99
58598;BME280;60319;46.908;16.848;2022-08-25T10:44:01;99528.53;;;27.28;76.71
58598;BME280;60319;46.908;16.848;2022-08-25T10:49:15;99524.59;;;26.97;76.66
58598;BME280;60319;46.908;16.848;2022-08-25T11:00:21;99522.28;;;27.78;76.17
58598;BME280;60319;46.908;16.848;2022-08-25T11:05:27;99516.28;;;28.14;71.15
58598;BME280;60319;46.908;16.848;2022-08-25T11:10:41;99511.63;;;27.76;71.50
58598;BME280;60319;46.908;16.848;2022-08-25T11:15:52;99511.88;;;27.75;74.32
58598;BME280;60319;46.908;16.848;2022-08-25T11:21:08;99502.09;;;27.56;74.61
58598;BME280;60319;46.908;16.848;2022-08-25T11:26:11;99509.03;;;27.64;72.67
58598;BME280;60319;46.908;16.848;2022-08-25T11:31:13;99493.41;;;28.25;72.21
58598;BME280;60319;46.908;16.848;2022-08-25T11:36:32;99493.69;;;28.72;68.63
58598;BME280;60319;46.908;16.848;2022-08-25T11:42:03;99481.34;;;28.21;70.57
58598;BME280;60319;46.908;16.848;2022-08-25T11:57:37;99467.47;;;27.62;72.46
58598;BME280;60319;46.908;16.848;2022-08-25T12:02:48;99466.91;;;27.33;71.73
58598;BME280;60319;46.908;16.848;2022-08-25T12:13:42;99462.44;;;28.52;70.61
58598;BME280;60319;46.908;16.848;2022-08-25T12:18:44;99459.69;;;28.52;66.78
58598;BME280;60319;46.908;16.848;2022-08-25T12:24:05;99455.84;;;29.07;66.38
58598;BME280;60319;46.908;16.848;2022-08-25T12:39:34;99447.97;;;28.14;67.85
58598;BME280;60319;46.908;16.848;2022-08-25T12:44:43;99444.72;;;28.60;67.13
58598;BME280;60319;46.908;16.848;2022-08-25T12:49:46;99444.69;;;29.24;64.92
58598;BME280;60319;46.908;16.848;2022-08-25T12:54:57;99446.09;;;29.58;63.37
58598;BME280;60319;46.908;16.848;2022-08-25T13:00:02;99429.97;;;29.77;63.47
58598;BME280;60319;46.908;16.848;2022-08-25T13:05:44;99434.88;;;28.64;65.32
58598;BME280;60319;46.908;16.848;2022-08-25T13:10:55;99443.38;;;27.81;65.43
58598;BME280;60319;46.908;16.848;2022-08-25T13:16:03;99434.63;;;27.52;68.22
58598;BME280;60319;46.908;16.848;2022-08-25T13:21:19;99435.22;;;27.26;70.60
58598;BME280;60319;46.908;16.848;2022-08-25T13:26:25;99432.81;;;27.35;71.02
58598;BME280;60319;46.908;16.848;2022-08-25T13:31:27;99428.44;;;27.94;67.89
58598;BME280;60319;46.908;16.848;2022-08-25T13:36:41;99418.06;;;28.35;67.56
58598;BME280;60319;46.908;16.848;2022-08-25T13:42:03;99416.00;;;28.63;67.60
58598;BME280;60319;46.908;16.848;2022-08-25T13:52:24;99409.81;;;28.88;64.03
58598;BME280;60319;46.908;16.848;2022-08-25T13:57:27;99404.66;;;28.97;64.20
58598;BME280;60319;46.908;16.848;2022-08-25T14:02:51;99406.16;;;28.62;63.72
58598;BME280;60319;46.908;16.848;2022-08-25T14:07:54;99403.44;;;28.67;65.49
58598;BME280;60319;46.908;16.848;2022-08-25T14:13:14;99395.09;;;28.36;64.14
58598;BME280;60319;46.908;16.848;2022-08-25T14:18:29;99395.44;;;28.06;67.75
58598;BME280;60319;46.908;16.848;2022-08-25T14:23:30;99395.34;;;27.58;69.44
58598;BME280;60319;46.908;16.848;2022-08-25T14:28:30;99385.53;;;27.57;68.45
58598;BME280;60319;46.908;16.848;2022-08-25T14:33:45;99385.44;;;27.47;66.33
58598;BME280;60319;46.908;16.848;2022-08-25T14:38:48;99390.34;;;27.72;67.36
58598;BME280;60319;46.908;16.848;2022-08-25T14:43:48;99377.84;;;27.87;66.95
58598;BME280;60319;46.908;16.848;2022-08-25T14:48:52;99384.50;;;28.01;67.35
58598;BME280;60319;46.908;16.848;2022-08-25T14:53:57;99389.72;;;28.08;65.96
58598;BME280;60319;46.908;16.848;2022-08-25T14:58:59;99384.56;;;28.12;65.16
58598;BME280;60319;46.908;16.848;2022-08-25T15:04:03;99377.19;;;28.12;64.58
58598;BME280;60319;46.908;16.848;2022-08-25T15:09:05;99375.84;;;28.15;65.00
58598;BME280;60319;46.908;16.848;2022-08-25T15:14:11;99381.06;;;28.22;66.15
58598;BME280;60319;46.908;16.848;2022-08-25T15:19:16;99380.25;;;28.21;66.66
58598;BME280;60319;46.908;16.848;2022-08-25T15:24:17;99378.59;;;28.15;67.34
58598;BME280;60319;46.908;16.848;2022-08-25T15:29:19;99374.66;;;28.00;67.67
58598;BME280;60319;46.908;16.848;2022-08-25T15:34:20;99369.91;;;27.85;66.15
58598;BME280;60319;46.908;16.848;2022-08-25T15:39:20;99362.72;;;27.68;68.06
58598;BME280;60319;46.908;16.848;2022-08-25T15:44:21;99359.88;;;27.58;69.25
58598;BME280;60319;46.908;16.848;2022-08-25T15:49:21;99351.09;;;27.51;67.86
58598;BME280;60319;46.908;16.848;2022-08-25T15:54:22;99354.84;;;27.44;68.91
58598;BME280;60319;46.908;16.848;2022-08-25T15:59:24;99353.34;;;27.26;65.63
58598;BME280;60319;46.908;16.848;2022-08-25T16:04:26;99341.00;;;27.18;68.11
58598;BME280;60319;46.908;16.848;2022-08-25T16:09:28;99344.44;;;27.09;69.93
58598;BME280;60319;46.908;16.848;2022-08-25T16:14:30;99339.13;;;26.97;67.62
58598;BME280;60319;46.908;16.848;2022-08-25T16:19:31;99337.38;;;26.85;70.05
58598;BME280;60319;46.908;16.848;2022-08-25T16:24:32;99338.34;;;26.74;69.12
58598;BME280;60319;46.908;16.848;2022-08-25T16:29:33;99336.00;;;26.60;67.64
58598;BME280;60319;46.908;16.848;2022-08-25T16:34:36;99338.63;;;26.50;70.04
58598;BME280;60319;46.908;16.848;2022-08-25T16:39:37;99330.50;;;26.33;74.00
58598;BME280;60319;46.908;16.848;2022-08-25T16:44:43;99328.34;;;26.12;77.40
58598;BME280;60319;46.908;16.848;2022-08-25T16:49:44;99323.69;;;25.90;79.77
58598;BME280;60319;46.908;16.848;2022-08-25T16:54:45;99332.78;;;25.62;83.02
58598;BME280;60319;46.908;16.848;2022-08-25T17:00:06;99338.31;;;25.33;86.00
58598;BME280;60319;46.908;16.848;2022-08-25T17:05:10;99332.66;;;25.05;89.15
58598;BME280;60319;46.908;16.848;2022-08-25T17:10:11;99324.81;;;24.80;92.10
58598;BME280;60319;46.908;16.848;2022-08-25T17:15:12;99330.84;;;24.53;95.84
58598;BME280;60319;46.908;16.848;2022-08-25T17:20:12;99336.44;;;24.22;99.19
58598;BME280;60319;46.908;16.848;2022-08-25T17:25:13;99332.34;;;23.95;100.00
58598;BME280;60319;46.908;16.848;2022-08-25T17:30:13;99337.31;;;23.75;100.00
58598;BME280;60319;46.908;16.848;2022-08-25T17:35:14;99340.94;;;23.44;100.00
58598;BME280;60319;46.908;16.848;2022-08-25T17:40:15;99350.03;;;23.19;100.00
58598;BME280;60319;46.908;16.848;2022-08-25T17:45:15;99351.16;;;23.00;100.00
58598;BME280;60319;46.908;16.848;2022-08-25T17:50:16;99354.47;;;22.71;100.00
58598;BME280;60319;46.908;16.848;2022-08-25T17:55:17;99365.75;;;22.49;100.00
58598;BME280;60319;46.908;16.848;2022-08-25T18:00:22;99368.91;;;22.27;100.00
58598;BME280;60319;46.908;16.848;2022-08-25T18:05:23;99371.38;;;22.10;100.00
58598;BME280;60319;46.908;16.848;2022-08-25T18:10:24;99378.19;;;21.94;100.00
58598;BME280;60319;46.908;16.848;2022-08-25T18:15:25;99383.94;;;21.79;100.00
58598;BME280;60319;46.908;16.848;2022-08-25T18:20:28;99383.22;;;21.65;100.00
58598;BME280;60319;46.908;16.848;2022-08-25T18:25:29;99377.25;;;21.56;100.00
58598;BME280;60319;46.908;16.848;2022-08-25T18:30:29;99386.06;;;21.45;100.00
58598;BME280;60319;46.908;16.848;2022-08-25T18:35:30;99388.41;;;21.34;100.00
58598;BME280;60319;46.908;16.848;2022-08-25T18:40:34;99396.19;;;21.24;100.00
58598;BME280;60319;46.908;16.848;2022-08-25T18:45:41;99397.47;;;21.14;100.00
58598;BME280;60319;46.908;16.848;2022-08-25T18:50:42;99396.91;;;21.06;100.00
58598;BME280;60319;46.908;16.848;2022-08-25T18:55:46;99398.00;;;20.98;100.00
58598;BME280;60319;46.908;16.848;2022-08-25T19:00:47;99397.56;;;20.94;100.00
58598;BME280;60319;46.908;16.848;2022-08-25T19:05:48;99410.28;;;20.87;100.00
58598;BME280;60319;46.908;16.848;2022-08-25T19:10:51;99405.94;;;20.79;100.00
58598;BME280;60319;46.908;16.848;2022-08-25T19:15:52;99403.88;;;20.74;100.00
58598;BME280;60319;46.908;16.848;2022-08-25T19:20:53;99406.59;;;20.68;100.00
58598;BME280;60319;46.908;16.848;2022-08-25T19:25:53;99403.31;;;20.59;100.00
58598;BME280;60319;46.908;16.848;2022-08-25T19:30:54;99396.66;;;20.55;100.00
58598;BME280;60319;46.908;16.848;2022-08-25T19:35:56;99403.75;;;20.49;100.00
58598;BME280;60319;46.908;16.848;2022-08-25T19:40:57;99396.28;;;20.44;100.00
58598;BME280;60319;46.908;16.848;2022-08-25T19:45:58;99402.34;;;20.39;100.00
58598;BME280;60319;46.908;16.848;2022-08-25T19:50:58;99401.09;;;20.35;100.00
58598;BME280;60319;46.908;16.848;2022-08-25T19:55:59;99404.63;;;20.29;100.00
58598;BME280;60319;46.908;16.848;2022-08-25T20:01:00;99396.34;;;20.24;100.00
58598;BME280;60319;46.908;16.848;2022-08-25T20:06:01;99398.84;;;20.19;100.00
58598;BME280;60319;46.908;16.848;2022-08-25T20:11:02;99392.19;;;20.14;100.00
58598;BME280;60319;46.908;16.848;2022-08-25T20:16:03;99391.16;;;20.09;100.00
58598;BME280;60319;46.908;16.848;2022-08-25T20:21:04;99396.16;;;20.05;100.00
58598;BME280;60319;46.908;16.848;2022-08-25T20:26:07;99395.13;;;19.99;100.00
58598;BME280;60319;46.908;16.848;2022-08-25T20:31:08;99392.22;;;19.94;100.00
58598;BME280;60319;46.908;16.848;2022-08-25T20:36:13;99399.03;;;19.90;100.00
58598;BME280;60319;46.908;16.848;2022-08-25T20:41:13;99394.28;;;19.85;100.00
58598;BME280;60319;46.908;16.848;2022-08-25T20:46:14;99399.06;;;19.83;100.00
58598;BME280;60319;46.908;16.848;2022-08-25T20:51:15;99402.78;;;19.82;100.00
58598;BME280;60319;46.908;16.848;2022-08-25T20:56:17;99403.41;;;19.77;100.00
58598;BME280;60319;46.908;16.848;2022-08-25T21:01:20;99405.69;;;19.74;100.00
58598;BME280;60319;46.908;16.848;2022-08-25T21:06:21;99407.97;;;19.70;100.00
58598;BME280;60319;46.908;16.848;2022-08-25T21:11:21;99404.22;;;19.64;100.00
58598;BME280;60319;46.908;16.848;2022-08-25T21:16:25;99404.44;;;19.56;100.00
58598;BME280;60319;46.908;16.848;2022-08-25T21:21:25;99400.09;;;19.55;100.00
58598;BME280;60319;46.908;16.848;2022-08-25T21:26:28;99397.00;;;19.52;100.00
58598;BME280;60319;46.908;16.848;2022-08-25T21:31:30;99406.72;;;19.46;100.00
58598;BME280;60319;46.908;16.848;2022-08-25T21:36:31;99405.03;;;19.38;100.00
58598;BME280;60319;46.908;16.848;2022-08-25T21:41:33;99404.00;;;19.32;100.00
58598;BME280;60319;46.908;16.848;2022-08-25T21:46:34;99391.31;;;19.26;100.00
58598;BME280;60319;46.908;16.848;2022-08-25T21:51:41;99396.72;;;19.26;100.00
58598;BME280;60319;46.908;16.848;2022-08-25T22:01:53;99377.03;;;19.19;100.00
58598;BME280;60319;46.908;16.848;2022-08-25T22:06:57;99375.97;;;19.13;100.00
58598;BME280;60319;46.908;16.848;2022-08-25T22:11:58;99376.94;;;19.05;100.00
58598;BME280;60319;46.908;16.848;2022-08-25T22:16:59;99370.31;;;19.01;100.00
58598;BME280;60319;46.908;16.848;2022-08-25T22:22:00;99374.84;;;19.00;100.00
58598;BME280;60319;46.908;16.848;2022-08-25T22:27:00;99371.75;;;18.97;100.00
58598;BME280;60319;46.908;16.848;2022-08-25T22:32:02;99365.13;;;18.93;100.00
58598;BME280;60319;46.908;16.848;2022-08-25T22:37:04;99371.09;;;18.88;100.00
58598;BME280;60319;46.908;16.848;2022-08-25T22:42:04;99368.41;;;18.88;100.00
58598;BME280;60319;46.908;16.848;2022-08-25T22:47:06;99362.81;;;18.83;100.00
58598;BME280;60319;46.908;16.848;2022-08-25T22:52:07;99354.28;;;18.79;100.00
58598;BME280;60319;46.908;16.848;2022-08-25T22:57:09;99354.69;;;18.76;100.00
58598;BME280;60319;46.908;16.848;2022-08-25T23:02:10;99342.25;;;18.75;100.00
58598;BME280;60319;46.908;16.848;2022-08-25T23:07:10;99343.69;;;18.71;100.00
58598;BME280;60319;46.908;16.848;2022-08-25T23:12:11;99343.47;;;18.66;100.00
58598;BME280;60319;46.908;16.848;2022-08-25T23:17:12;99345.13;;;18.67;100.00
58598;BME280;60319;46.908;16.848;2022-08-25T23:22:12;99331.47;;;18.61;100.00
58598;BME280;60319;46.908;16.848;2022-08-25T23:27:18;99336.84;;;18.61;100.00
58598;BME280;60319;46.908;16.848;2022-08-25T23:32:19;99333.09;;;18.56;100.00
58598;BME280;60319;46.908;16.848;2022-08-25T23:37:19;99326.03;;;18.55;100.00
58598;BME280;60319;46.908;16.848;2022-08-25T23:42:20;99321.28;;;18.57;100.00
58598;BME280;60319;46.908;16.848;2022-08-25T23:47:21;99315.69;;;18.52;100.00
58598;BME280;60319;46.908;16.848;2022-08-25T23:52:21;99320.00;;;18.46;100.00
58598;BME280;60319;46.908;16.848;2022-08-25T23:57:22;99319.38;;;18.51;100.00
